Time;durP1;ratioP1;P1;durP2;ratioP2;P2;SDS_P1;SDS_P2;PMS_P1;PMS_P2;Temp;Humidity;BMP_temperature;BMP_pressure;BME280_temperature;BME280_humidity;BME280_pressure;Samples;Min_cycle;Max_cycle;Signal;HPM_P1;HPM_P2
2022/05/26 00:00:30;;;;;;;2.50;1.50;;;;;;;;;;5051826;28;20112;-74
2022/05/26 00:02:55;;;;;;;2.40;1.60;;;;;;;;;;5017184;28;20120;-74
2022/05/26 00:05:20;;;;;;;3.10;1.42;;;;;;;;;;5033897;28;20044;-76
2022/05/26 00:07:46;;;;;;;3.33;1.83;;;;;;;;;;5051774;28;20033;-74
2022/05/26 00:10:12;;;;;;;2.50;1.55;;;;;;;;;;5033911;28;20468;-74
2022/05/26 00:12:37;;;;;;;2.03;1.38;;;;;;;;;;5033469;28;20036;-75
2022/05/26 00:15:04;;;;;;;3.10;1.70;;;;;;;;;;5033771;28;20028;-75
2022/05/26 00:17:30;;;;;;;3.60;1.40;;;;;;;;;;5033635;28;20119;-75
2022/05/26 00:19:55;;;;;;;4.43;1.75;;;;;;;;;;5051616;28;20076;-75
2022/05/26 00:22:21;;;;;;;3.30;1.80;;;;;;;;;;5033575;28;20032;-75
2022/05/26 00:24:46;;;;;;;2.42;1.58;;;;;;;;;;5033720;28;20529;-76
2022/05/26 00:27:12;;;;;;;3.53;1.95;;;;;;;;;;5051457;28;20396;-75
2022/05/26 00:29:38;;;;;;;3.45;1.63;;;;;;;;;;5033534;28;20078;-75
2022/05/26 00:32:04;;;;;;;4.75;1.67;;;;;;;;;;5033073;28;20083;-75
2022/05/26 00:34:30;;;;;;;2.95;1.60;;;;;;;;;;5033519;28;20033;-75
2022/05/26 00:36:55;;;;;;;6.57;1.98;;;;;;;;;;5051830;28;20029;-75
2022/05/26 00:39:22;;;;;;;1.80;1.42;;;;;;;;;;5017106;28;20048;-75
2022/05/26 00:41:52;;;;;;;5.90;2.00;;;;;;;;;;5051241;28;20075;-75
2022/05/26 00:44:18;;;;;;;3.55;1.60;;;;;;;;;;5016901;28;20409;-75
2022/05/26 00:47:07;;;;;;;5.97;2.20;;;;;;;;;;5051439;28;20040;-75
2022/05/26 00:49:41;;;;;;;3.17;1.73;;;;;;;;;;5051360;28;20388;-75
2022/05/26 00:52:14;;;;;;;3.22;1.75;;;;;;;;;;5051226;28;20333;-75
2022/05/26 00:54:41;;;;;;;2.78;1.77;;;;;;;;;;5033435;28;20028;-75
2022/05/26 00:57:19;;;;;;;1.85;1.50;;;;;;;;;;5051394;28;20103;-74
2022/05/26 00:59:49;;;;;;;3.10;1.48;;;;;;;;;;5016966;28;20124;-74
2022/05/26 01:02:15;;;;;;;3.35;1.70;;;;;;;;;;5033188;28;20430;-76
2022/05/26 01:04:53;;;;;;;8.98;2.00;;;;;;;;;;5016639;28;20024;-76
2022/05/26 01:07:23;;;;;;;4.15;1.65;;;;;;;;;;5033310;28;20040;-76
2022/05/26 01:09:48;;;;;;;2.22;1.65;;;;;;;;;;5016603;28;20021;-76
2022/05/26 01:12:14;;;;;;;2.40;1.50;;;;;;;;;;5033237;28;20414;-77
2022/05/26 01:14:44;;;;;;;3.95;1.83;;;;;;;;;;5016626;28;20033;-76
2022/05/26 01:17:27;;;;;;;4.70;2.00;;;;;;;;;;5051010;28;20017;-77
2022/05/26 01:20:24;;;;;;;4.05;2.33;;;;;;;;;;5050962;28;20162;-76
2022/05/26 01:22:59;;;;;;;8.30;2.25;;;;;;;;;;5033049;28;20135;-77
2022/05/26 01:26:21;;;;;;;5.00;2.08;;;;;;;;;;5051226;28;20037;-76
2022/05/26 01:29:05;;;;;;;3.20;1.67;;;;;;;;;;4970199;28;20513;-75
2022/05/26 01:31:49;;;;;;;3.22;1.75;;;;;;;;;;4970311;28;20077;-76
2022/05/26 01:34:22;;;;;;;8.07;1.77;;;;;;;;;;5027189;28;20071;-76
2022/05/26 01:36:58;;;;;;;6.50;2.35;;;;;;;;;;5032984;28;20029;-76
2022/05/26 01:39:32;;;;;;;4.03;1.70;;;;;;;;;;5050839;28;20053;-76
2022/05/26 01:42:04;;;;;;;3.92;1.98;;;;;;;;;;5033797;28;20073;-76
2022/05/26 01:44:49;;;;;;;4.00;1.77;;;;;;;;;;5020632;28;20375;-76
2022/05/26 01:47:39;;;;;;;3.13;1.80;;;;;;;;;;5036585;28;20047;-75
2022/05/26 01:50:11;;;;;;;3.65;2.00;;;;;;;;;;5054664;28;20029;-75
2022/05/26 01:53:08;;;;;;;3.72;2.10;;;;;;;;;;5036309;28;20120;-76
2022/05/26 01:55:41;;;;;;;5.45;2.08;;;;;;;;;;5054406;28;20146;-75
2022/05/26 01:58:12;;;;;;;7.40;2.20;;;;;;;;;;5036240;28;20082;-75
2022/05/26 02:00:38;;;;;;;5.35;2.13;;;;;;;;;;5019978;28;20039;-76
2022/05/26 02:03:19;;;;;;;3.13;1.80;;;;;;;;;;5019922;28;20115;-76
2022/05/26 02:05:48;;;;;;;4.38;1.77;;;;;;;;;;5016162;28;20041;-76
2022/05/26 02:08:25;;;;;;;6.18;2.10;;;;;;;;;;5032785;28;20112;-76
2022/05/26 02:11:17;;;;;;;5.80;2.38;;;;;;;;;;5036168;28;20055;-76
2022/05/26 02:13:43;;;;;;;7.28;2.30;;;;;;;;;;5029204;28;20040;-76
2022/05/26 02:16:44;;;;;;;4.55;2.10;;;;;;;;;;5053783;28;20025;-76
2022/05/26 02:19:16;;;;;;;4.22;1.83;;;;;;;;;;5022974;28;20324;-75
2022/05/26 02:21:47;;;;;;;4.07;2.08;;;;;;;;;;5035878;28;20367;-75
2022/05/26 02:24:21;;;;;;;4.68;1.92;;;;;;;;;;5035769;28;20481;-75
2022/05/26 02:26:46;;;;;;;4.85;2.35;;;;;;;;;;5035889;28;20029;-75
2022/05/26 02:31:56;;;;;;;4.78;2.00;;;;;;;;;;5053582;28;20036;-76
2022/05/26 02:34:22;;;;;;;4.55;2.17;;;;;;;;;;5053550;28;20033;-76
2022/05/26 02:36:53;;;;;;;4.50;1.90;;;;;;;;;;5053725;28;20107;-76
2022/05/26 02:39:19;;;;;;;5.65;2.20;;;;;;;;;;5019466;28;20032;-75
2022/05/26 02:41:45;;;;;;;6.05;2.15;;;;;;;;;;5053102;28;20044;-75
2022/05/26 02:44:10;;;;;;;3.35;2.17;;;;;;;;;;5053486;28;20025;-76
2022/05/26 02:46:56;;;;;;;5.00;2.35;;;;;;;;;;5035408;28;20083;-76
2022/05/26 02:49:40;;;;;;;6.28;2.17;;;;;;;;;;5018907;28;20085;-75
2022/05/26 02:52:16;;;;;;;;;;;;;;;;;;5053439;28;20025;-76
2022/05/26 02:55:03;;;;;;;8.70;2.33;;;;;;;;;;5052211;28;19969;-76
2022/05/26 02:57:52;;;;;;;15.43;2.70;;;;;;;;;;5052980;28;20499;-74
2022/05/26 03:00:23;;;;;;;4.90;2.40;;;;;;;;;;5035283;28;20025;-75
2022/05/26 03:02:57;;;;;;;7.78;2.40;;;;;;;;;;5035085;28;20094;-75
2022/05/26 03:05:36;;;;;;;7.75;2.25;;;;;;;;;;5034980;28;20173;-75
2022/05/26 03:08:06;;;;;;;4.75;2.13;;;;;;;;;;5018483;28;20124;-75
2022/05/26 03:10:32;;;;;;;6.75;2.17;;;;;;;;;;5034875;28;20074;-75
2022/05/26 03:13:01;;;;;;;5.13;2.10;;;;;;;;;;5034811;28;20120;-75
2022/05/26 03:15:29;;;;;;;6.20;2.35;;;;;;;;;;5035299;28;20063;-75
2022/05/26 03:17:54;;;;;;;4.70;2.58;;;;;;;;;;5034749;28;20024;-74
2022/05/26 03:20:20;;;;;;;8.40;2.50;;;;;;;;;;5052613;28;20028;-74
2022/05/26 03:22:45;;;;;;;6.50;2.30;;;;;;;;;;5052798;28;20045;-74
2022/05/26 03:25:11;;;;;;;6.85;2.45;;;;;;;;;;5052467;28;20387;-74
2022/05/26 03:27:36;;;;;;;2.85;1.92;;;;;;;;;;5052369;28;20041;-74
2022/05/26 03:30:03;;;;;;;5.32;2.17;;;;;;;;;;5052477;28;20420;-74
2022/05/26 03:32:28;;;;;;;7.28;2.55;;;;;;;;;;5034187;28;20040;-76
2022/05/26 03:43:07;;;;;;;5.28;2.13;;;;;;;;;;5019229;28;20064;-74
2022/05/26 03:45:34;;;;;;;6.78;2.30;;;;;;;;;;5014255;28;20037;-74
2022/05/26 03:48:00;;;;;;;7.93;2.33;;;;;;;;;;5014613;28;20025;-74
2022/05/26 03:50:25;;;;;;;5.82;2.13;;;;;;;;;;5014372;28;20021;-74
2022/05/26 03:52:51;;;;;;;8.80;2.45;;;;;;;;;;5032369;28;20156;-75
2022/05/26 03:55:20;;;;;;;7.90;2.13;;;;;;;;;;5032029;28;20079;-74
2022/05/26 03:57:46;;;;;;;4.80;1.95;;;;;;;;;;5032228;28;20554;-76
2022/05/26 04:00:15;;;;;;;7.47;2.58;;;;;;;;;;4997973;28;20062;-75
2022/05/26 04:02:41;;;;;;;3.55;2.05;;;;;;;;;;5014600;28;20480;-74
2022/05/26 04:05:07;;;;;;;5.35;2.05;;;;;;;;;;5032154;28;20036;-75
2022/05/26 04:07:34;;;;;;;4.20;1.85;;;;;;;;;;5014598;28;20033;-75
2022/05/26 04:10:00;;;;;;;6.85;3.50;;;;;;;;;;4997843;28;20120;-76
2022/05/26 04:12:26;;;;;;;4.68;2.13;;;;;;;;;;5031893;28;20120;-76
2022/05/26 04:14:51;;;;;;;5.53;1.90;;;;;;;;;;5014198;28;20049;-76
2022/05/26 04:17:16;;;;;;;4.13;2.05;;;;;;;;;;5031902;28;20025;-76
2022/05/26 04:19:42;;;;;;;5.43;2.00;;;;;;;;;;5014600;28;20030;-75
2022/05/26 04:22:23;;;;;;;5.25;2.45;;;;;;;;;;5013940;28;20030;-76
2022/05/26 04:24:50;;;;;;;5.28;2.10;;;;;;;;;;4999318;28;20028;-76
2022/05/26 04:27:18;;;;;;;4.90;2.20;;;;;;;;;;5013957;28;20021;-76
2022/05/26 04:29:44;;;;;;;7.95;3.53;;;;;;;;;;5014287;28;20108;-75
2022/05/26 04:32:10;;;;;;;5.93;2.00;;;;;;;;;;5032175;28;20108;-75
2022/05/26 04:34:37;;;;;;;8.80;2.63;;;;;;;;;;5014344;28;20075;-75
2022/05/26 04:37:02;;;;;;;6.35;2.03;;;;;;;;;;5014540;28;20076;-75
2022/05/26 04:39:28;;;;;;;7.53;2.00;;;;;;;;;;5032155;28;20037;-76
2022/05/26 04:41:58;;;;;;;6.15;2.13;;;;;;;;;;5021613;28;20216;-76
2022/05/26 04:44:24;;;;;;;6.05;2.05;;;;;;;;;;5017552;28;20431;-76
2022/05/26 04:46:49;;;;;;;5.30;2.10;;;;;;;;;;5051982;28;20052;-76
2022/05/26 04:49:14;;;;;;;6.07;2.10;;;;;;;;;;5034180;28;20036;-75
2022/05/26 04:51:40;;;;;;;6.85;1.88;;;;;;;;;;5051918;28;20043;-75
2022/05/26 04:54:06;;;;;;;10.13;2.42;;;;;;;;;;5051830;28;20480;-76
2022/05/26 04:56:32;;;;;;;4.63;2.00;;;;;;;;;;5034017;28;20551;-76
2022/05/26 04:58:57;;;;;;;6.13;2.08;;;;;;;;;;5034076;28;20144;-76
2022/05/26 05:01:23;;;;;;;6.55;1.90;;;;;;;;;;5017453;28;20116;-76
2022/05/26 05:03:48;;;;;;;5.43;2.38;;;;;;;;;;5017386;28;20029;-76
2022/05/26 05:06:15;;;;;;;7.50;2.05;;;;;;;;;;5051937;28;20045;-76
2022/05/26 05:08:41;;;;;;;6.28;2.45;;;;;;;;;;5034175;28;20502;-76
2022/05/26 05:11:07;;;;;;;4.90;2.20;;;;;;;;;;5051821;28;20479;-76
2022/05/26 05:13:33;;;;;;;3.80;1.92;;;;;;;;;;5051716;28;20028;-76
2022/05/26 05:16:02;;;;;;;4.25;1.90;;;;;;;;;;5033761;28;20031;-76
2022/05/26 05:18:28;;;;;;;6.80;2.30;;;;;;;;;;5037719;28;20036;-75
2022/05/26 05:20:57;;;;;;;3.58;1.80;;;;;;;;;;5021653;28;20055;-76
2022/05/26 05:23:22;;;;;;;6.90;1.98;;;;;;;;;;5037710;28;20033;-76
2022/05/26 05:25:49;;;;;;;10.90;1.98;;;;;;;;;;5037824;28;20035;-76
2022/05/26 05:28:17;;;;;;;6.10;2.20;;;;;;;;;;5037429;28;20074;-75
2022/05/26 05:30:54;;;;;;;4.75;2.38;;;;;;;;;;5020910;28;20020;-76
2022/05/26 05:33:23;;;;;;;5.63;1.98;;;;;;;;;;5037457;28;20124;-76
2022/05/26 05:35:53;;;;;;;3.35;1.70;;;;;;;;;;5037301;28;20368;-75
2022/05/26 05:38:19;;;;;;;2.88;1.50;;;;;;;;;;5037321;28;20024;-76
2022/05/26 05:40:45;;;;;;;4.97;2.00;;;;;;;;;;5055508;28;20036;-76
2022/05/26 05:43:11;;;;;;;5.55;1.80;;;;;;;;;;5037145;28;20415;-78
2022/05/26 05:45:38;;;;;;;7.18;2.83;;;;;;;;;;5037041;28;20037;-76
2022/05/26 05:48:04;;;;;;;5.93;1.75;;;;;;;;;;5054976;28;20029;-76
2022/05/26 05:50:29;;;;;;;4.57;1.70;;;;;;;;;;5054994;28;20051;-76
2022/05/26 05:52:54;;;;;;;4.45;1.73;;;;;;;;;;5036879;28;20033;-77
2022/05/26 05:55:20;;;;;;;4.88;2.05;;;;;;;;;;5020157;28;20032;-76
2022/05/26 05:57:45;;;;;;;8.00;2.15;;;;;;;;;;5019736;28;20467;-76
2022/05/26 06:00:11;;;;;;;7.97;1.85;;;;;;;;;;5019953;28;20036;-75
2022/05/26 06:02:36;;;;;;;6.13;1.90;;;;;;;;;;5020240;28;20135;-76
2022/05/26 06:05:04;;;;;;;8.50;1.92;;;;;;;;;;5036659;28;20041;-76
2022/05/26 06:07:29;;;;;;;10.07;1.80;;;;;;;;;;5036740;28;20167;-74
2022/05/26 06:09:55;;;;;;;8.93;1.95;;;;;;;;;;5036311;28;20029;-75
2022/05/26 06:12:20;;;;;;;6.82;1.70;;;;;;;;;;5036103;28;20383;-75
2022/05/26 06:14:46;;;;;;;3.65;1.48;;;;;;;;;;5054308;28;20464;-75
2022/05/26 06:17:12;;;;;;;9.65;2.08;;;;;;;;;;5003709;28;20136;-77
2022/05/26 06:19:39;;;;;;;8.85;2.13;;;;;;;;;;5036039;28;20395;-76
2022/05/26 06:22:14;;;;;;;7.20;1.90;;;;;;;;;;5036295;28;20032;-75
2022/05/26 06:24:40;;;;;;;6.60;1.83;;;;;;;;;;5019599;28;20017;-75
2022/05/26 06:29:54;;;;;;;8.00;1.67;;;;;;;;;;5017644;28;20094;-74
2022/05/26 06:37:53;;;;;;;3.65;1.58;;;;;;;;;;5039212;28;20530;-75
2022/05/26 06:40:18;;;;;;;3.97;1.75;;;;;;;;;;5019507;28;20064;-76
2022/05/26 06:42:48;;;;;;;6.90;1.52;;;;;;;;;;5035586;28;20137;-75
2022/05/26 06:45:18;;;;;;;7.63;1.88;;;;;;;;;;5053603;28;20041;-76
2022/05/26 06:47:44;;;;;;;6.70;1.67;;;;;;;;;;5035925;28;20029;-75
2022/05/26 06:50:10;;;;;;;4.40;1.67;;;;;;;;;;5035782;28;20036;-76
2022/05/26 06:52:36;;;;;;;10.75;1.63;;;;;;;;;;5019598;28;20040;-75
2022/05/26 06:55:03;;;;;;;5.25;1.58;;;;;;;;;;5053756;28;20041;-76
2022/05/26 06:57:29;;;;;;;7.45;1.77;;;;;;;;;;5053609;28;20084;-77
2022/05/26 06:59:55;;;;;;;5.20;1.77;;;;;;;;;;5020341;28;20044;-77
2022/05/26 07:02:20;;;;;;;11.40;3.08;;;;;;;;;;5020023;28;20128;-77
2022/05/26 07:04:46;;;;;;;5.75;1.70;;;;;;;;;;5036048;28;20017;-77
2022/05/26 07:07:13;;;;;;;7.93;2.40;;;;;;;;;;5036155;28;20037;-77
2022/05/26 07:09:38;;;;;;;9.75;2.17;;;;;;;;;;5003372;28;20115;-77
2022/05/26 07:12:04;;;;;;;6.30;1.80;;;;;;;;;;5032120;28;20509;-78
2022/05/26 07:14:29;;;;;;;7.13;2.30;;;;;;;;;;5052222;28;20103;-78
2022/05/26 07:16:55;;;;;;;6.70;1.75;;;;;;;;;;5053252;28;20395;-78
2022/05/26 07:19:20;;;;;;;7.25;1.52;;;;;;;;;;5035484;28;20029;-77
2022/05/26 07:21:51;;;;;;;5.35;1.55;;;;;;;;;;5035353;28;20115;-78
2022/05/26 07:24:19;;;;;;;4.55;1.80;;;;;;;;;;5053063;28;20013;-77
2022/05/26 07:26:45;;;;;;;8.10;1.50;;;;;;;;;;5035347;28;20060;-76
2022/05/26 07:29:10;;;;;;;5.57;1.70;;;;;;;;;;5053174;28;20064;-77
2022/05/26 07:31:36;;;;;;;6.40;1.65;;;;;;;;;;5052923;28;20032;-77
2022/05/26 07:34:01;;;;;;;7.07;1.30;;;;;;;;;;5053264;28;20064;-77
2022/05/26 07:41:59;;;;;;;;;;;;;;;;;;5038028;28;20091;-77
2022/05/26 07:44:25;;;;;;;4.63;1.30;;;;;;;;;;5018757;28;20327;-76
2022/05/26 07:46:51;;;;;;;4.07;1.75;;;;;;;;;;5034824;28;20064;-77
2022/05/26 07:49:17;;;;;;;4.53;1.70;;;;;;;;;;5052441;28;20067;-77
2022/05/26 07:51:43;;;;;;;4.25;1.45;;;;;;;;;;5052401;28;20073;-77
2022/05/26 07:54:08;;;;;;;4.75;1.40;;;;;;;;;;5034507;28;20036;-77
2022/05/26 07:56:36;;;;;;;7.78;1.23;;;;;;;;;;5052543;28;20032;-75
2022/05/26 07:59:04;;;;;;;3.45;1.38;;;;;;;;;;5034668;28;20509;-77
2022/05/26 08:01:29;;;;;;;8.55;2.00;;;;;;;;;;5052562;28;20078;-76
2022/05/26 08:03:55;;;;;;;4.82;1.52;;;;;;;;;;5053100;28;20037;-76
2022/05/26 08:06:21;;;;;;;5.75;2.42;;;;;;;;;;5034847;28;20044;-76
2022/05/26 08:08:47;;;;;;;4.20;1.20;;;;;;;;;;5034472;28;20028;-77
2022/05/26 08:11:13;;;;;;;5.55;1.98;;;;;;;;;;5017855;28;20028;-77
2022/05/26 08:13:38;;;;;;;5.25;1.80;;;;;;;;;;5052031;28;20052;-77
2022/05/26 08:16:05;;;;;;;4.28;1.17;;;;;;;;;;5034566;28;20525;-76
2022/05/26 08:18:31;;;;;;;9.77;1.52;;;;;;;;;;5034445;28;20024;-78
2022/05/26 08:21:07;;;;;;;14.60;3.35;;;;;;;;;;5052100;28;20382;-78
2022/05/26 08:23:32;;;;;;;8.68;2.53;;;;;;;;;;5052102;28;20013;-78
2022/05/26 08:25:58;;;;;;;8.27;1.90;;;;;;;;;;5034178;28;20113;-78
2022/05/26 08:28:24;;;;;;;8.25;1.58;;;;;;;;;;5033985;28;20021;-78
2022/05/26 08:30:49;;;;;;;5.15;1.60;;;;;;;;;;5051737;28;20475;-79
2022/05/26 08:33:14;;;;;;;11.15;2.78;;;;;;;;;;5051802;28;20036;-78
2022/05/26 08:35:40;;;;;;;5.70;1.50;;;;;;;;;;5033805;28;20440;-79
2022/05/26 08:38:05;;;;;;;4.53;1.83;;;;;;;;;;5033729;28;20111;-80
2022/05/26 08:40:41;;;;;;;5.07;1.20;;;;;;;;;;5051775;28;20040;-79
2022/05/26 08:43:13;;;;;;;4.97;1.55;;;;;;;;;;5017185;28;20037;-79
2022/05/26 08:45:44;;;;;;;7.80;2.03;;;;;;;;;;5033807;28;20137;-81
2022/05/26 08:48:13;;;;;;;7.57;1.52;;;;;;;;;;5014145;28;20029;-80
2022/05/26 08:50:40;;;;;;;6.55;1.35;;;;;;;;;;5034909;28;20025;-83
2022/05/26 08:53:19;;;;;;;2.85;1.33;;;;;;;;;;5037926;28;20092;-83
2022/05/26 08:55:46;;;;;;;5.35;1.40;;;;;;;;;;5038571;28;20025;-83
2022/05/26 08:58:17;;;;;;;4.28;1.33;;;;;;;;;;5021762;28;20451;-81
2022/05/26 09:00:44;;;;;;;2.60;1.30;;;;;;;;;;5055434;28;20029;-81
2022/05/26 09:03:24;;;;;;;6.85;1.58;;;;;;;;;;5037646;28;20082;-82
2022/05/26 09:06:08;;;;;;;8.82;1.48;;;;;;;;;;5055261;28;20029;-79
2022/05/26 09:14:30;;;;;;;5.05;1.25;;;;;;;;;;5040110;28;20051;-81
2022/05/26 09:17:04;;;;;;;5.53;1.45;;;;;;;;;;5037880;28;20440;-81
2022/05/26 09:19:53;;;;;;;2.65;1.23;;;;;;;;;;5037477;28;20128;-81
2022/05/26 09:22:44;;;;;;;4.43;1.58;;;;;;;;;;5055054;28;20033;-83
2022/05/26 09:25:33;;;;;;;4.18;1.23;;;;;;;;;;5012426;28;20391;-80
2022/05/26 09:27:58;;;;;;;3.55;1.38;;;;;;;;;;5054572;28;20044;-82
2022/05/26 09:30:33;;;;;;;4.65;1.30;;;;;;;;;;5054854;28;20033;-81
2022/05/26 09:32:59;;;;;;;1.75;1.10;;;;;;;;;;5020079;28;20025;-78
2022/05/26 09:35:30;;;;;;;8.00;1.30;;;;;;;;;;5020289;28;20033;-80
2022/05/26 09:38:01;;;;;;;2.72;1.20;;;;;;;;;;5036707;28;20108;-81
2022/05/26 09:40:31;;;;;;;2.90;1.63;;;;;;;;;;5036457;28;20412;-81
2022/05/26 09:43:17;;;;;;;4.07;1.30;;;;;;;;;;5036406;28;20041;-81
2022/05/26 09:45:46;;;;;;;3.45;1.25;;;;;;;;;;5019765;28;20025;-80
2022/05/26 09:48:30;;;;;;;4.75;1.27;;;;;;;;;;5016483;28;20021;-80
2022/05/26 09:51:01;;;;;;;3.58;1.35;;;;;;;;;;5036152;28;20039;-80
2022/05/26 09:53:33;;;;;;;4.45;1.17;;;;;;;;;;5053538;28;20080;-80
2022/05/26 09:55:58;;;;;;;2.08;0.90;;;;;;;;;;5047674;28;20035;-78
2022/05/26 09:58:44;;;;;;;1.75;1.00;;;;;;;;;;5075042;28;20110;-80
2022/05/26 10:01:24;;;;;;;5.00;1.23;;;;;;;;;;5094054;28;20028;-80
2022/05/26 10:04:00;;;;;;;2.92;0.95;;;;;;;;;;5094368;28;20055;-79
2022/05/26 10:06:33;;;;;;;9.15;1.45;;;;;;;;;;5094266;28;20030;-79
2022/05/26 10:09:10;;;;;;;1.65;0.90;;;;;;;;;;5060049;28;20028;-79
2022/05/26 10:11:57;;;;;;;2.95;1.10;;;;;;;;;;5075866;28;20035;-79
2022/05/26 10:14:50;;;;;;;1.98;0.90;;;;;;;;;;5076081;28;20336;-79
2022/05/26 10:17:44;;;;;;;2.80;1.17;;;;;;;;;;5075813;28;20486;-79
2022/05/26 10:20:48;;;;;;;3.22;1.55;;;;;;;;;;5075163;28;20028;-80
2022/05/26 10:23:19;;;;;;;2.45;1.38;;;;;;;;;;5093544;28;20115;-79
2022/05/26 10:26:05;;;;;;;2.80;1.50;;;;;;;;;;5067521;28;20508;-80
2022/05/26 10:29:06;;;;;;;2.10;1.50;;;;;;;;;;5092044;28;20028;-79
2022/05/26 10:31:56;;;;;;;2.08;1.10;;;;;;;;;;5065422;28;20048;-79
2022/05/26 10:34:42;;;;;;;3.53;1.30;;;;;;;;;;5073039;28;20039;-80
2022/05/26 10:37:18;;;;;;;3.75;1.42;;;;;;;;;;5071385;28;20035;-82
2022/05/26 10:39:49;;;;;;;6.68;1.40;;;;;;;;;;5073175;28;20543;-81
2022/05/26 10:42:23;;;;;;;3.15;1.35;;;;;;;;;;5071653;28;20052;-83
2022/05/26 10:45:02;;;;;;;4.47;1.40;;;;;;;;;;5072574;28;20024;-80
2022/05/26 10:47:59;;;;;;;5.03;1.73;;;;;;;;;;5071979;28;20024;-80
2022/05/26 10:50:37;;;;;;;2.95;1.70;;;;;;;;;;5049459;28;20563;-78
2022/05/26 10:53:23;;;;;;;4.00;1.40;;;;;;;;;;5053399;28;20067;-78
2022/05/26 10:55:57;;;;;;;4.22;1.58;;;;;;;;;;5052143;28;20032;-79
2022/05/26 10:58:31;;;;;;;3.15;1.40;;;;;;;;;;5052089;28;20120;-78
2022/05/26 11:01:02;;;;;;;3.67;1.52;;;;;;;;;;5035916;28;20040;-79
2022/05/26 11:03:31;;;;;;;1.85;1.20;;;;;;;;;;5051902;28;20021;-80
2022/05/26 11:06:07;;;;;;;4.95;1.75;;;;;;;;;;5052390;28;20029;-79
2022/05/26 11:08:46;;;;;;;3.85;0.93;;;;;;;;;;5052083;28;20040;-79
2022/05/26 11:11:22;;;;;;;3.72;1.10;;;;;;;;;;5052151;28;20056;-79
2022/05/26 11:13:54;;;;;;;2.13;0.90;;;;;;;;;;5051949;28;20021;-80
2022/05/26 11:19:17;;;;;;;1.83;1.00;;;;;;;;;;5053333;28;20100;-79
2022/05/26 11:21:42;;;;;;;2.40;0.98;;;;;;;;;;5036029;28;20029;-80
2022/05/26 11:24:09;;;;;;;1.63;0.73;;;;;;;;;;5051738;28;20395;-81
2022/05/26 11:27:10;;;;;;;11.35;1.25;;;;;;;;;;5018968;28;20077;-81
2022/05/26 11:29:45;;;;;;;4.70;1.38;;;;;;;;;;5052661;28;20100;-80
2022/05/26 11:38:02;;;;;;;3.50;1.30;;;;;;;;;;5029572;28;20040;-78
2022/05/26 11:40:44;;;;;;;3.30;1.02;;;;;;;;;;5051116;28;20368;-79
2022/05/26 11:43:10;;;;;;;6.28;1.10;;;;;;;;;;5050798;28;20056;-80
2022/05/26 11:45:48;;;;;;;5.03;1.30;;;;;;;;;;5051137;28;20041;-80
2022/05/26 11:48:31;;;;;;;3.40;1.33;;;;;;;;;;5051162;28;20044;-80
2022/05/26 11:51:12;;;;;;;2.85;1.10;;;;;;;;;;5052261;28;20029;-80
2022/05/26 11:53:41;;;;;;;3.70;0.95;;;;;;;;;;5052324;28;20032;-79
2022/05/26 11:56:28;;;;;;;3.83;1.40;;;;;;;;;;5034199;28;20021;-78
2022/05/26 11:59:18;;;;;;;2.65;1.00;;;;;;;;;;5052562;28;20021;-79
2022/05/26 12:01:58;;;;;;;3.58;1.38;;;;;;;;;;5052369;28;20021;-78
2022/05/26 12:04:31;;;;;;;3.05;1.33;;;;;;;;;;5051854;28;20085;-78
2022/05/26 12:07:03;;;;;;;8.30;1.30;;;;;;;;;;5034774;28;20528;-78
2022/05/26 12:09:28;;;;;;;9.77;1.20;;;;;;;;;;5050808;28;20040;-78
2022/05/26 12:11:55;;;;;;;6.82;1.25;;;;;;;;;;5052602;28;20021;-78
2022/05/26 12:14:22;;;;;;;2.33;1.10;;;;;;;;;;5050835;28;20048;-79
2022/05/26 12:16:47;;;;;;;6.57;1.75;;;;;;;;;;5052288;28;20025;-78
2022/05/26 12:19:40;;;;;;;6.28;1.33;;;;;;;;;;5033809;28;20087;-77
2022/05/26 12:22:24;;;;;;;3.28;1.40;;;;;;;;;;5050505;28;20024;-77
2022/05/26 12:24:59;;;;;;;3.35;1.10;;;;;;;;;;5062367;28;20024;-76
2022/05/26 12:27:57;;;;;;;3.97;1.48;;;;;;;;;;5057996;28;20060;-76
2022/05/26 12:31:00;;;;;;;3.47;0.90;;;;;;;;;;5049300;28;20040;-79
2022/05/26 12:33:29;;;;;;;4.40;1.27;;;;;;;;;;5059169;28;20099;-80
2022/05/26 12:36:21;;;;;;;4.78;1.52;;;;;;;;;;5066051;28;20135;-79
2022/05/26 12:39:14;;;;;;;2.78;1.08;;;;;;;;;;5052894;28;20050;-79
2022/05/26 12:42:00;;;;;;;1.83;0.90;;;;;;;;;;5054461;28;20024;-80
2022/05/26 12:45:04;;;;;;;2.55;0.98;;;;;;;;;;5043466;28;20033;-81
2022/05/26 12:47:54;;;;;;;2.38;1.25;;;;;;;;;;5013864;28;20107;-80
2022/05/26 12:50:23;;;;;;;3.10;0.90;;;;;;;;;;5034487;28;20101;-80
2022/05/26 12:52:57;;;;;;;1.95;1.10;;;;;;;;;;5017025;28;20555;-80
2022/05/26 12:55:38;;;;;;;2.20;1.10;;;;;;;;;;5015797;28;20044;-81
2022/05/26 12:58:09;;;;;;;4.32;1.20;;;;;;;;;;5016954;28;20033;-80
2022/05/26 13:00:45;;;;;;;1.30;0.90;;;;;;;;;;5001518;28;20026;-80
2022/05/26 13:03:20;;;;;;;1.52;0.88;;;;;;;;;;5028067;28;20064;-80
2022/05/26 13:06:07;;;;;;;1.45;0.95;;;;;;;;;;5001821;28;20048;-80
2022/05/26 13:08:46;;;;;;;4.32;1.30;;;;;;;;;;5041748;28;20047;-79
2022/05/26 13:11:18;;;;;;;3.80;0.75;;;;;;;;;;5036329;28;20096;-80
2022/05/26 13:13:50;;;;;;;2.80;0.80;;;;;;;;;;5018466;28;20026;-80
2022/05/26 13:16:39;;;;;;;2.35;1.00;;;;;;;;;;5033379;28;20056;-80
2022/05/26 13:19:23;;;;;;;5.47;0.88;;;;;;;;;;5026871;28;20494;-80
2022/05/26 13:21:50;;;;;;;4.82;0.82;;;;;;;;;;5039657;28;20120;-79
2022/05/26 13:24:36;;;;;;;1.83;0.68;;;;;;;;;;5019406;28;20047;-79
2022/05/26 13:27:11;;;;;;;4.45;1.10;;;;;;;;;;5026655;28;20072;-79
2022/05/26 13:29:43;;;;;;;1.10;0.98;;;;;;;;;;5032384;28;20029;-79
2022/05/26 13:34:56;;;;;;;2.03;1.10;;;;;;;;;;5036059;28;20092;-79
2022/05/26 13:37:23;;;;;;;2.30;0.95;;;;;;;;;;5033304;28;20037;-79
2022/05/26 13:40:04;;;;;;;1.65;1.00;;;;;;;;;;5020538;28;20116;-78
2022/05/26 13:42:30;;;;;;;1.20;0.80;;;;;;;;;;5042342;28;20072;-79
2022/05/26 13:44:56;;;;;;;1.50;0.70;;;;;;;;;;5074747;28;20062;-79
2022/05/26 13:47:23;;;;;;;4.88;0.90;;;;;;;;;;5074016;28;20130;-79
2022/05/26 13:50:04;;;;;;;7.70;1.00;;;;;;;;;;5056714;28;20036;-79
2022/05/26 13:52:30;;;;;;;4.05;0.95;;;;;;;;;;5056434;28;20040;-79
2022/05/26 13:55:03;;;;;;;2.58;1.35;;;;;;;;;;5056422;28;20032;-80
2022/05/26 13:57:33;;;;;;;1.58;0.82;;;;;;;;;;5056766;28;20418;-78
2022/05/26 14:00:28;;;;;;;2.10;1.02;;;;;;;;;;5056639;28;20415;-80
2022/05/26 14:03:01;;;;;;;1.70;0.88;;;;;;;;;;5060996;28;20037;-82
2022/05/26 14:05:32;;;;;;;5.13;1.63;;;;;;;;;;5056672;28;20035;-80
2022/05/26 14:07:57;;;;;;;2.10;1.10;;;;;;;;;;5074203;28;20028;-80
2022/05/26 14:10:51;;;;;;;1.90;0.88;;;;;;;;;;5056140;28;20486;-80
2022/05/26 14:13:18;;;;;;;2.08;0.80;;;;;;;;;;5039678;28;20028;-79
2022/05/26 14:15:54;;;;;;;2.40;1.02;;;;;;;;;;5074164;28;20052;-79
2022/05/26 14:18:31;;;;;;;1.45;0.80;;;;;;;;;;5039898;28;20031;-79
2022/05/26 14:21:08;;;;;;;4.22;1.38;;;;;;;;;;5074800;28;20326;-80
2022/05/26 14:23:35;;;;;;;3.53;1.40;;;;;;;;;;5056681;28;20459;-79
2022/05/26 14:26:06;;;;;;;2.53;0.70;;;;;;;;;;5055811;28;20035;-79
2022/05/26 14:28:39;;;;;;;2.17;0.98;;;;;;;;;;5055976;28;20374;-79
2022/05/26 14:31:16;;;;;;;1.88;0.70;;;;;;;;;;5055836;28;20485;-80
2022/05/26 14:33:55;;;;;;;3.08;1.40;;;;;;;;;;5055385;28;20048;-79
2022/05/26 14:36:20;;;;;;;2.40;0.73;;;;;;;;;;5055606;28;20040;-79
2022/05/26 14:38:46;;;;;;;2.88;0.90;;;;;;;;;;5055033;28;20114;-80
2022/05/26 14:41:11;;;;;;;1.80;1.00;;;;;;;;;;5055503;28;20108;-81
2022/05/26 14:43:38;;;;;;;1.50;0.77;;;;;;;;;;5055235;28;20053;-80
2022/05/26 14:46:04;;;;;;;1.95;0.77;;;;;;;;;;5055703;28;20074;-80
2022/05/26 14:48:30;;;;;;;2.30;1.00;;;;;;;;;;5073378;28;20029;-81
2022/05/26 14:50:56;;;;;;;6.93;1.30;;;;;;;;;;5072177;28;20036;-79
2022/05/26 14:55:27;;;;;;;6.38;1.58;;;;;;;;;;5038581;28;20483;-78
2022/05/26 14:56:07;;;;;;;4.85;1.00;;;;;;;;;;5058095;28;20116;-78
2022/05/26 14:58:32;;;;;;;3.95;0.90;;;;;;;;;;5055237;28;20070;-80
2022/05/26 15:00:58;;;;;;;2.55;0.82;;;;;;;;;;5022721;28;20430;-81
2022/05/26 15:03:25;;;;;;;2.28;0.70;;;;;;;;;;5055451;28;20044;-81
2022/05/26 15:05:52;;;;;;;1.25;0.70;;;;;;;;;;5073442;28;20359;-81
2022/05/26 15:08:22;;;;;;;4.18;0.80;;;;;;;;;;5055384;28;20035;-80
2022/05/26 15:10:48;;;;;;;2.80;0.77;;;;;;;;;;5055325;28;20017;-78
2022/05/26 15:13:13;;;;;;;3.33;0.70;;;;;;;;;;5073643;28;20036;-79
2022/05/26 15:15:39;;;;;;;5.70;0.90;;;;;;;;;;5055556;28;20090;-78
2022/05/26 15:18:04;;;;;;;2.67;0.95;;;;;;;;;;5073336;28;20032;-78
2022/05/26 15:20:30;;;;;;;2.17;0.82;;;;;;;;;;5055206;28;20499;-78
2022/05/26 15:22:55;;;;;;;8.10;1.25;;;;;;;;;;5073178;28;20355;-78
2022/05/26 15:25:21;;;;;;;1.60;0.80;;;;;;;;;;5073186;28;20100;-78
2022/05/26 15:27:46;;;;;;;3.40;1.05;;;;;;;;;;5054558;28;20032;-78
2022/05/26 15:30:15;;;;;;;1.83;0.85;;;;;;;;;;5054528;28;20111;-78
2022/05/26 15:32:44;;;;;;;1.92;1.00;;;;;;;;;;5054776;28;20024;-79
2022/05/26 15:35:12;;;;;;;3.42;0.95;;;;;;;;;;5037738;28;20130;-77
2022/05/26 15:37:39;;;;;;;8.15;0.82;;;;;;;;;;5054477;28;20073;-77
2022/05/26 15:40:06;;;;;;;1.65;0.70;;;;;;;;;;5072033;28;20055;-77
2022/05/26 15:42:31;;;;;;;2.25;0.95;;;;;;;;;;5053750;28;20155;-77
2022/05/26 15:44:56;;;;;;;2.35;0.90;;;;;;;;;;5054034;28;20074;-78
2022/05/26 15:47:35;;;;;;;2.85;0.90;;;;;;;;;;5054149;28;20039;-78
2022/05/26 15:50:03;;;;;;;3.03;1.50;;;;;;;;;;5038557;28;20025;-78
2022/05/26 15:52:31;;;;;;;4.10;1.83;;;;;;;;;;5054371;28;20446;-78